Time;durP1;ratioP1;P1;durP2;ratioP2;P2;SDS_P1;SDS_P2;PMS_P1;PMS_P2;Temp;Humidity;BMP_temperature;BMP_pressure;BME280_temperature;BME280_humidity;BME280_pressure;Samples;Min_cycle;Max_cycle;Signal;HPM_P1;HPM_P2
2023/11/08 00:00:04;;;;;;;20.20;9.87;;;7.10;99.90;;;;;;5092460;28;20558;-83
2023/11/08 00:02:31;;;;;;;16.83;8.87;;;7.10;99.90;;;;;;5093908;28;20230;-83
2023/11/08 00:05:00;;;;;;;17.57;9.20;;;7.10;99.90;;;;;;5075582;28;20200;-83
2023/11/08 00:07:27;;;;;;;16.30;9.40;;;7.10;99.90;;;;;;5092114;28;20229;-83
2023/11/08 00:09:54;;;;;;;18.97;9.40;;;7.00;99.90;;;;;;5092200;28;21188;-85
2023/11/08 00:12:24;;;;;;;18.03;9.37;;;7.00;99.90;;;;;;5093491;28;20191;-85
2023/11/08 00:14:51;;;;;;;17.20;9.67;;;7.00;99.90;;;;;;5092513;28;20544;-85
2023/11/08 00:17:20;;;;;;;18.30;10.13;;;6.90;99.90;;;;;;5092372;28;20726;-85
2023/11/08 00:19:47;;;;;;;22.80;10.07;;;6.90;99.90;;;;;;5093673;28;20200;-85
2023/11/08 00:22:14;;;;;;;21.03;9.60;;;6.80;99.90;;;;;;5093488;28;20200;-85
2023/11/08 00:24:41;;;;;;;19.97;9.80;;;6.90;99.90;;;;;;5091961;28;20656;-85
2023/11/08 00:27:08;;;;;;;25.43;10.63;;;6.90;99.90;;;;;;5093336;28;20266;-85
2023/11/08 00:29:35;;;;;;;20.00;9.83;;;6.90;99.90;;;;;;5093231;28;20191;-84
2023/11/08 00:32:02;;;;;;;19.00;10.33;;;7.00;99.90;;;;;;5091923;28;20192;-85
2023/11/08 00:34:29;;;;;;;19.27;10.37;;;6.90;99.90;;;;;;5093389;28;20231;-84
2023/11/08 00:36:57;;;;;;;19.10;10.57;;;6.90;99.90;;;;;;5093083;28;20276;-84
2023/11/08 00:39:23;;;;;;;18.20;9.47;;;6.90;99.90;;;;;;5091732;28;20232;-84
2023/11/08 00:41:50;;;;;;;22.40;10.40;;;7.00;99.90;;;;;;5092891;28;20231;-84
2023/11/08 00:44:18;;;;;;;22.60;9.93;;;7.00;99.90;;;;;;5091597;28;20781;-85
2023/11/08 00:46:45;;;;;;;18.47;10.03;;;7.00;99.90;;;;;;5074860;28;20664;-85
2023/11/08 00:49:13;;;;;;;16.67;9.73;;;7.00;99.90;;;;;;5093511;28;20211;-86
2023/11/08 00:51:41;;;;;;;17.43;9.97;;;7.00;99.90;;;;;;5093628;28;20203;-86
2023/11/08 00:54:12;;;;;;;22.80;10.23;;;6.90;99.90;;;;;;5076034;28;20618;-87
2023/11/08 00:56:39;;;;;;;18.73;9.33;;;6.90;99.90;;;;;;5093422;28;20217;-86
2023/11/08 00:59:06;;;;;;;18.47;9.83;;;6.80;99.90;;;;;;5091626;28;20581;-86
2023/11/08 01:01:35;;;;;;;18.10;9.67;;;6.80;99.90;;;;;;5091460;28;20201;-86
2023/11/08 01:04:06;;;;;;;19.20;9.70;;;6.80;99.90;;;;;;5093064;28;20201;-86
2023/11/08 01:06:34;;;;;;;18.93;9.33;;;6.70;99.90;;;;;;5091851;28;20322;-87
2023/11/08 01:09:01;;;;;;;19.17;9.77;;;6.70;99.90;;;;;;5094052;28;20186;-85
2023/11/08 01:11:28;;;;;;;18.37;9.87;;;6.70;99.90;;;;;;5092849;28;20220;-85
2023/11/08 01:13:56;;;;;;;20.13;9.97;;;6.70;99.90;;;;;;5091721;28;20191;-85
2023/11/08 01:16:23;;;;;;;18.30;10.13;;;6.70;99.90;;;;;;5091263;28;20187;-85
2023/11/08 01:18:50;;;;;;;18.37;9.67;;;6.70;99.90;;;;;;5074491;28;20206;-84
2023/11/08 01:21:17;;;;;;;20.37;9.43;;;6.80;99.90;;;;;;5091423;28;20201;-84
2023/11/08 01:23:45;;;;;;;20.07;9.53;;;6.80;99.90;;;;;;5091349;28;20224;-84
2023/11/08 01:26:12;;;;;;;18.10;9.33;;;6.90;99.90;;;;;;5090998;28;20235;-84
2023/11/08 01:28:39;;;;;;;18.53;9.37;;;6.90;99.90;;;;;;5091209;28;20218;-84
2023/11/08 01:31:07;;;;;;;16.37;9.13;;;7.00;99.90;;;;;;5091097;28;20241;-84
2023/11/08 01:33:34;;;;;;;17.67;9.57;;;7.00;99.90;;;;;;5092533;28;20207;-84
2023/11/08 01:36:01;;;;;;;19.03;10.03;;;7.00;99.90;;;;;;5092381;28;20233;-85
2023/11/08 01:38:29;;;;;;;15.67;9.30;;;7.00;99.90;;;;;;5074270;28;20294;-84
2023/11/08 01:40:56;;;;;;;18.07;9.23;;;7.00;99.90;;;;;;5090950;28;20220;-84
2023/11/08 01:43:29;;;;;;;16.93;9.07;;;7.10;99.90;;;;;;5092148;28;20194;-84
2023/11/08 01:46:11;;;;;;;17.80;9.13;;;7.20;99.90;;;;;;5092101;28;20203;-85
2023/11/08 01:48:40;;;;;;;20.23;9.50;;;7.10;99.90;;;;;;5092442;28;20197;-84
2023/11/08 01:51:08;;;;;;;17.57;9.10;;;7.20;99.90;;;;;;5092328;28;20203;-84
2023/11/08 01:53:40;;;;;;;18.53;8.93;;;7.30;99.90;;;;;;5090909;28;20189;-84
2023/11/08 01:56:08;;;;;;;16.87;8.97;;;7.20;99.90;;;;;;5091033;28;20283;-84
2023/11/08 01:58:39;;;;;;;17.93;8.70;;;7.30;99.90;;;;;;5092037;28;20196;-84
2023/11/08 02:01:13;;;;;;;17.43;9.00;;;7.30;99.90;;;;;;5090686;28;20200;-84
2023/11/08 02:03:41;;;;;;;15.17;8.70;;;7.30;99.90;;;;;;5092008;28;20534;-84
2023/11/08 02:06:13;;;;;;;15.33;8.60;;;7.40;99.90;;;;;;5091006;28;20228;-85
2023/11/08 02:08:41;;;;;;;16.83;9.33;;;7.40;99.90;;;;;;5092073;28;20637;-85
2023/11/08 02:11:09;;;;;;;20.80;9.40;;;7.40;99.90;;;;;;5091024;28;20621;-84
2023/11/08 02:13:36;;;;;;;17.93;8.83;;;7.30;99.90;;;;;;5095705;28;20627;-84
2023/11/08 02:16:04;;;;;;;17.67;8.70;;;7.20;99.90;;;;;;5077712;28;20214;-85
2023/11/08 02:18:31;;;;;;;19.23;9.33;;;7.30;99.90;;;;;;5095934;28;20445;-84
2023/11/08 02:21:02;;;;;;;14.37;8.20;;;7.30;99.90;;;;;;5077712;28;20225;-85
2023/11/08 02:23:31;;;;;;;16.80;8.80;;;7.30;99.90;;;;;;5094293;28;20200;-85
2023/11/08 02:25:59;;;;;;;17.63;9.20;;;7.40;99.90;;;;;;5095332;28;20755;-85
2023/11/08 02:28:26;;;;;;;18.93;9.30;;;7.30;99.90;;;;;;5094541;28;20196;-84
2023/11/08 02:30:54;;;;;;;18.90;9.03;;;7.30;99.90;;;;;;5095422;28;20238;-84
2023/11/08 02:33:27;;;;;;;18.00;9.37;;;7.30;99.90;;;;;;5095327;28;20675;-84
2023/11/08 02:35:54;;;;;;;18.00;9.00;;;7.20;99.90;;;;;;5094049;28;20220;-84
2023/11/08 02:38:21;;;;;;;18.47;9.17;;;7.20;99.90;;;;;;5077422;28;20212;-84
2023/11/08 02:40:49;;;;;;;16.53;9.17;;;7.20;99.90;;;;;;5077459;28;20223;-84
2023/11/08 02:43:16;;;;;;;18.23;9.23;;;7.20;99.90;;;;;;5095166;28;20190;-84
2023/11/08 02:45:44;;;;;;;15.13;8.63;;;7.10;99.90;;;;;;5077463;28;20227;-84
2023/11/08 02:48:11;;;;;;;19.67;9.43;;;7.00;99.90;;;;;;5095068;28;20299;-84
2023/11/08 02:50:42;;;;;;;16.67;9.57;;;7.00;99.90;;;;;;5095031;28;20203;-84
2023/11/08 02:53:09;;;;;;;19.23;9.67;;;7.00;99.90;;;;;;5094134;28;20188;-85
2023/11/08 02:55:39;;;;;;;17.87;9.73;;;7.00;99.90;;;;;;5094015;28;20268;-84
2023/11/08 02:58:06;;;;;;;20.50;10.00;;;6.90;99.90;;;;;;5095056;28;20188;-84
2023/11/08 03:00:35;;;;;;;18.83;9.70;;;6.90;99.90;;;;;;5094961;28;20180;-83
2023/11/08 03:03:03;;;;;;;16.10;9.40;;;6.90;99.90;;;;;;5093721;28;20214;-84
2023/11/08 03:05:32;;;;;;;17.20;9.80;;;7.00;99.90;;;;;;5094845;28;20609;-84
2023/11/08 03:07:59;;;;;;;15.27;9.40;;;7.00;99.90;;;;;;5094731;28;20212;-84
2023/11/08 03:10:26;;;;;;;20.97;10.50;;;7.10;99.90;;;;;;5094885;28;20225;-83
2023/11/08 03:12:54;;;;;;;17.93;9.20;;;7.10;99.90;;;;;;5094566;28;20650;-84
2023/11/08 03:15:22;;;;;;;16.80;9.17;;;7.10;99.90;;;;;;5094678;28;20661;-84
2023/11/08 03:17:51;;;;;;;19.60;10.37;;;7.20;99.90;;;;;;5093264;28;20595;-84
2023/11/08 03:20:20;;;;;;;17.07;9.20;;;7.30;99.90;;;;;;5093335;28;20191;-84
2023/11/08 03:22:47;;;;;;;19.63;9.97;;;7.20;99.90;;;;;;5093105;28;20242;-84
2023/11/08 03:25:16;;;;;;;21.00;9.87;;;7.30;99.90;;;;;;5094614;28;20213;-84
2023/11/08 03:27:46;;;;;;;19.63;9.77;;;7.30;99.90;;;;;;5094317;28;20216;-84
2023/11/08 03:30:16;;;;;;;17.73;9.70;;;7.30;99.90;;;;;;5093054;28;20193;-84
2023/11/08 03:32:43;;;;;;;19.13;9.63;;;7.30;99.90;;;;;;5076204;28;20220;-84
2023/11/08 03:35:13;;;;;;;19.93;9.67;;;7.30;99.90;;;;;;5094230;28;20202;-84
2023/11/08 03:37:44;;;;;;;18.20;9.57;;;7.20;99.90;;;;;;5094131;28;20193;-84
2023/11/08 03:40:12;;;;;;;20.03;9.70;;;7.20;99.90;;;;;;5075998;28;20307;-84
2023/11/08 03:42:44;;;;;;;22.87;9.77;;;7.20;99.90;;;;;;5092875;28;20221;-84
2023/11/08 03:45:12;;;;;;;19.07;10.00;;;7.20;99.90;;;;;;5093101;28;20196;-84
2023/11/08 03:47:41;;;;;;;18.73;9.87;;;7.20;99.90;;;;;;5092837;28;20219;-84
2023/11/08 03:50:09;;;;;;;18.10;9.97;;;7.20;99.90;;;;;;5092992;28;20204;-84
2023/11/08 03:52:36;;;;;;;18.00;9.77;;;7.20;99.90;;;;;;5094177;28;20249;-84
2023/11/08 03:55:05;;;;;;;20.37;10.13;;;7.20;99.90;;;;;;5075976;28;20215;-84
2023/11/08 03:57:32;;;;;;;17.83;9.10;;;7.20;99.90;;;;;;5094305;28;20598;-84
2023/11/08 03:59:59;;;;;;;19.20;9.67;;;7.10;99.90;;;;;;5093805;28;20196;-84
2023/11/08 04:02:27;;;;;;;17.90;10.00;;;7.10;99.90;;;;;;5092746;28;20276;-84
2023/11/08 04:04:53;;;;;;;20.23;10.23;;;7.10;99.90;;;;;;5093636;28;20277;-84
2023/11/08 04:07:21;;;;;;;18.23;10.07;;;7.10;99.90;;;;;;5093518;28;20757;-84
2023/11/08 04:09:48;;;;;;;20.00;9.83;;;7.20;99.90;;;;;;5092320;28;20280;-84
2023/11/08 04:12:15;;;;;;;19.90;10.10;;;7.20;99.90;;;;;;5092316;28;20271;-84
2023/11/08 04:14:42;;;;;;;18.77;9.53;;;7.20;99.90;;;;;;5092493;28;20215;-84
2023/11/08 04:17:10;;;;;;;15.43;9.30;;;7.20;99.90;;;;;;5093440;28;20188;-84
2023/11/08 04:19:38;;;;;;;17.90;9.53;;;7.10;99.90;;;;;;5092152;28;20196;-84
2023/11/08 04:22:05;;;;;;;19.87;9.43;;;7.10;99.90;;;;;;5075268;28;20198;-84
2023/11/08 04:24:33;;;;;;;18.20;9.60;;;7.00;99.90;;;;;;5091890;28;20267;-84
2023/11/08 04:27:02;;;;;;;18.40;9.27;;;7.10;99.90;;;;;;5093188;28;20235;-84
2023/11/08 04:29:33;;;;;;;19.07;9.73;;;7.10;99.90;;;;;;5093535;28;20187;-84
2023/11/08 04:32:00;;;;;;;17.27;9.63;;;7.00;99.90;;;;;;5093398;28;20215;-85
2023/11/08 04:34:27;;;;;;;19.10;9.67;;;7.10;99.90;;;;;;5092624;28;20242;-85
2023/11/08 04:36:55;;;;;;;16.77;9.63;;;7.00;99.90;;;;;;5091549;28;20319;-85
2023/11/08 04:39:22;;;;;;;17.87;9.37;;;7.00;99.90;;;;;;5093081;28;20203;-84
2023/11/08 04:41:51;;;;;;;18.23;10.10;;;6.90;99.90;;;;;;5092994;28;20215;-84
2023/11/08 04:44:19;;;;;;;16.73;9.70;;;6.80;99.90;;;;;;5093206;28;20223;-84
2023/11/08 04:46:46;;;;;;;18.07;9.77;;;6.80;99.90;;;;;;5074850;28;20238;-84
2023/11/08 04:49:13;;;;;;;18.00;9.70;;;6.80;99.90;;;;;;5091924;28;20201;-84
2023/11/08 04:51:42;;;;;;;18.37;10.10;;;6.80;99.90;;;;;;5092875;28;20194;-85
2023/11/08 04:54:09;;;;;;;18.37;9.70;;;6.80;99.90;;;;;;5091835;28;20193;-85
2023/11/08 04:56:36;;;;;;;18.60;9.97;;;6.70;99.90;;;;;;5091651;28;20701;-84
2023/11/08 04:59:04;;;;;;;18.83;9.67;;;6.70;99.90;;;;;;5093047;28;20225;-86
2023/11/08 05:01:32;;;;;;;18.93;10.10;;;6.70;99.90;;;;;;5091784;28;20197;-85
2023/11/08 05:04:00;;;;;;;17.67;9.83;;;6.70;99.90;;;;;;5074807;28;20185;-85
2023/11/08 05:06:27;;;;;;;17.43;9.73;;;6.70;99.90;;;;;;5092533;28;20656;-85
2023/11/08 05:08:55;;;;;;;20.13;10.00;;;6.60;99.90;;;;;;5091653;28;20194;-85
2023/11/08 05:11:22;;;;;;;16.53;10.13;;;6.70;99.90;;;;;;5092535;28;20212;-85
2023/11/08 05:13:50;;;;;;;22.77;10.30;;;6.70;99.90;;;;;;5092537;28;20187;-85
2023/11/08 05:16:21;;;;;;;16.87;9.33;;;6.60;99.90;;;;;;5091431;28;20198;-85
2023/11/08 05:18:52;;;;;;;17.37;9.80;;;6.60;99.90;;;;;;5092548;28;20291;-85
2023/11/08 05:21:21;;;;;;;20.30;10.70;;;6.60;99.90;;;;;;5092547;28;20215;-85
2023/11/08 05:23:48;;;;;;;19.57;9.90;;;6.50;99.90;;;;;;5092885;28;20194;-85
2023/11/08 05:26:16;;;;;;;21.80;10.40;;;6.40;99.90;;;;;;5091059;28;20219;-85
2023/11/08 05:28:43;;;;;;;18.20;10.00;;;6.50;99.90;;;;;;5091001;28;20217;-84
2023/11/08 05:31:11;;;;;;;22.20;10.87;;;6.50;99.90;;;;;;5091128;28;20201;-85
2023/11/08 05:33:40;;;;;;;20.80;10.23;;;6.50;99.90;;;;;;5074407;28;20233;-85
2023/11/08 05:36:07;;;;;;;20.50;10.30;;;6.50;99.90;;;;;;5092297;28;20725;-86
2023/11/08 05:38:34;;;;;;;19.80;10.63;;;6.50;99.90;;;;;;5092198;28;20674;-85
2023/11/08 05:41:01;;;;;;;26.77;10.33;;;6.40;99.90;;;;;;5091161;28;20280;-85
2023/11/08 05:43:29;;;;;;;20.80;11.07;;;6.40;99.90;;;;;;5092474;28;20185;-85
2023/11/08 05:45:56;;;;;;;21.50;10.50;;;6.50;99.90;;;;;;5092386;28;20246;-85
2023/11/08 05:48:23;;;;;;;19.37;10.37;;;6.50;99.90;;;;;;5095515;28;20273;-84
2023/11/08 05:50:50;;;;;;;18.93;10.33;;;6.50;99.90;;;;;;5096138;28;20191;-85
2023/11/08 05:53:20;;;;;;;22.53;11.17;;;6.70;99.90;;;;;;5096443;28;20536;-85
2023/11/08 05:55:47;;;;;;;19.43;10.63;;;6.70;99.90;;;;;;5094838;28;20223;-84
2023/11/08 05:58:14;;;;;;;22.57;10.33;;;6.70;99.90;;;;;;5094927;28;20211;-84
2023/11/08 06:00:41;;;;;;;21.50;10.87;;;6.70;99.90;;;;;;5096191;28;20188;-85
2023/11/08 06:03:09;;;;;;;18.93;10.03;;;6.70;99.90;;;;;;5096401;28;20200;-85
2023/11/08 06:05:36;;;;;;;20.33;10.40;;;6.70;99.90;;;;;;5094760;28;20196;-84
2023/11/08 06:08:04;;;;;;;18.17;10.30;;;6.80;99.90;;;;;;5094690;28;20636;-85
2023/11/08 06:10:32;;;;;;;17.67;10.23;;;6.70;99.90;;;;;;5096485;28;20770;-85
2023/11/08 06:13:01;;;;;;;23.17;10.67;;;6.90;99.90;;;;;;5095585;28;20200;-84
2023/11/08 06:15:28;;;;;;;20.77;10.40;;;6.90;99.90;;;;;;5096148;28;20193;-85
2023/11/08 06:17:56;;;;;;;18.37;10.07;;;6.90;99.90;;;;;;5094579;28;20186;-84
2023/11/08 06:20:23;;;;;;;19.63;10.07;;;6.90;99.90;;;;;;5095850;28;20199;-85
2023/11/08 06:22:50;;;;;;;19.77;9.93;;;6.90;99.90;;;;;;5094382;28;20216;-85
2023/11/08 06:25:18;;;;;;;22.93;11.30;;;7.00;99.90;;;;;;5094246;28;20209;-85
2023/11/08 06:27:46;;;;;;;20.87;10.90;;;7.10;99.90;;;;;;5095630;28;20632;-85
2023/11/08 06:30:14;;;;;;;20.53;10.63;;;7.10;99.90;;;;;;5095730;28;20194;-86
2023/11/08 06:32:41;;;;;;;21.07;10.50;;;7.20;99.90;;;;;;5095729;28;20211;-84
2023/11/08 06:35:09;;;;;;;18.20;10.03;;;7.20;99.90;;;;;;5093884;28;20211;-86
2023/11/08 06:37:37;;;;;;;18.50;10.30;;;7.30;99.90;;;;;;5095631;28;20238;-86
2023/11/08 06:40:07;;;;;;;16.80;9.70;;;7.40;99.90;;;;;;5094076;28;20552;-87
2023/11/08 06:42:34;;;;;;;19.20;9.80;;;7.40;99.90;;;;;;5095368;28;20199;-86
2023/11/08 06:45:03;;;;;;;20.27;10.47;;;7.30;99.90;;;;;;5095693;28;20583;-85
2023/11/08 06:47:31;;;;;;;20.53;9.97;;;7.40;99.90;;;;;;5077343;28;20249;-85
2023/11/08 06:49:59;;;;;;;23.00;10.67;;;7.40;99.90;;;;;;5094258;28;20209;-86
2023/11/08 06:52:26;;;;;;;26.13;10.17;;;7.40;99.90;;;;;;5095034;28;20197;-86
2023/11/08 06:54:53;;;;;;;18.50;10.23;;;7.40;99.90;;;;;;5094900;28;20396;-86
2023/11/08 06:57:20;;;;;;;22.30;11.03;;;7.30;99.90;;;;;;5093541;28;20203;-85
2023/11/08 06:59:48;;;;;;;21.10;9.97;;;7.50;99.90;;;;;;5076825;28;20245;-84
2023/11/08 07:02:15;;;;;;;18.97;10.03;;;7.40;99.90;;;;;;5094977;28;20196;-83
2023/11/08 07:04:42;;;;;;;18.53;9.97;;;7.40;99.90;;;;;;5077400;28;20549;-83
2023/11/08 07:07:11;;;;;;;20.30;10.80;;;7.40;99.90;;;;;;5094892;28;20546;-84
2023/11/08 07:09:39;;;;;;;21.03;10.83;;;7.50;99.90;;;;;;5093425;28;20295;-85
2023/11/08 07:12:08;;;;;;;19.97;10.33;;;7.60;99.90;;;;;;5094816;28;20217;-86
2023/11/08 07:14:36;;;;;;;20.40;10.10;;;7.60;99.90;;;;;;5093326;28;20722;-85
2023/11/08 07:17:05;;;;;;;16.50;9.63;;;7.70;99.90;;;;;;5093145;28;20684;-84
2023/11/08 07:19:32;;;;;;;21.87;10.60;;;7.70;99.90;;;;;;5094426;28;20219;-84
2023/11/08 07:21:59;;;;;;;20.57;10.43;;;7.80;99.90;;;;;;5094496;28;20181;-85
2023/11/08 07:24:27;;;;;;;20.13;10.63;;;7.80;99.90;;;;;;5094619;28;20603;-85
2023/11/08 07:26:54;;;;;;;18.90;9.80;;;7.90;99.90;;;;;;5094488;28;20224;-84
2023/11/08 07:29:22;;;;;;;19.93;10.33;;;8.10;99.90;;;;;;5076570;28;20209;-85
2023/11/08 07:31:52;;;;;;;20.30;10.27;;;8.10;99.90;;;;;;5094470;28;20235;-85
2023/11/08 07:34:21;;;;;;;18.80;9.87;;;8.20;99.90;;;;;;5093120;28;20195;-85
2023/11/08 07:36:51;;;;;;;18.00;9.87;;;8.20;99.90;;;;;;5094206;28;20229;-86
2023/11/08 07:39:18;;;;;;;19.90;9.50;;;8.30;99.90;;;;;;5093316;28;20200;-84
2023/11/08 07:41:53;;;;;;;16.37;9.20;;;8.30;99.90;;;;;;5094289;28;20219;-84
2023/11/08 07:44:20;;;;;;;20.93;9.27;;;8.40;99.90;;;;;;5092759;28;20188;-84
2023/11/08 07:46:47;;;;;;;15.30;8.73;;;8.50;99.90;;;;;;5094239;28;20584;-84
2023/11/08 07:49:15;;;;;;;15.70;8.53;;;8.50;99.90;;;;;;5093739;28;20223;-83
2023/11/08 07:51:43;;;;;;;17.00;8.40;;;8.60;99.90;;;;;;5092420;28;20216;-82
2023/11/08 07:54:11;;;;;;;17.53;8.93;;;8.70;99.90;;;;;;5094043;28;20228;-82
2023/11/08 07:56:38;;;;;;;16.20;8.53;;;8.80;99.90;;;;;;5093891;28;20308;-82
2023/11/08 07:59:05;;;;;;;18.73;8.30;;;8.90;99.90;;;;;;5092297;28;20727;-83
2023/11/08 08:01:32;;;;;;;16.27;8.57;;;9.00;99.90;;;;;;5093755;28;20194;-80
2023/11/08 08:04:00;;;;;;;15.87;8.33;;;9.00;99.90;;;;;;5075492;28;20204;-81
2023/11/08 08:06:27;;;;;;;15.87;7.60;;;9.00;99.90;;;;;;5093782;28;20200;-81
2023/11/08 08:08:56;;;;;;;15.23;8.23;;;9.00;99.90;;;;;;5092204;28;20233;-82
2023/11/08 08:11:24;;;;;;;15.00;7.63;;;9.10;99.90;;;;;;5092804;28;20236;-84
2023/11/08 08:13:52;;;;;;;17.73;7.93;;;9.10;99.90;;;;;;5093556;28;20197;-82
2023/11/08 08:16:22;;;;;;;15.30;7.83;;;9.20;99.90;;;;;;5092025;28;20185;-82
2023/11/08 08:18:49;;;;;;;15.63;8.37;;;9.30;99.90;;;;;;5093289;28;20204;-82
2023/11/08 08:21:17;;;;;;;17.40;8.60;;;9.30;99.90;;;;;;5091976;28;20201;-82
2023/11/08 08:23:44;;;;;;;14.83;8.07;;;9.30;99.90;;;;;;5091627;28;20255;-82
2023/11/08 08:26:24;;;;;;;11.80;7.73;;;9.30;99.90;;;;;;5093179;28;20248;-82
2023/11/08 08:28:51;;;;;;;15.20;7.90;;;9.30;99.90;;;;;;5093141;28;20692;-83
2023/11/08 08:31:19;;;;;;;16.63;8.00;;;9.40;99.90;;;;;;5075087;28;20196;-81
2023/11/08 08:33:46;;;;;;;16.30;7.80;;;9.40;99.90;;;;;;5093762;28;20200;-81
2023/11/08 08:36:13;;;;;;;18.83;8.40;;;9.40;99.90;;;;;;5092347;28;20229;-82
2023/11/08 08:38:40;;;;;;;18.57;7.50;;;9.50;99.90;;;;;;5092604;28;20280;-82
2023/11/08 08:41:07;;;;;;;16.57;8.20;;;9.60;99.90;;;;;;5093467;28;20217;-83
2023/11/08 08:43:35;;;;;;;12.33;7.37;;;9.60;99.90;;;;;;5092243;28;20204;-82
2023/11/08 08:46:02;;;;;;;13.33;6.97;;;9.70;99.90;;;;;;5095052;28;20190;-80
2023/11/08 08:48:29;;;;;;;12.80;6.77;;;9.80;99.90;;;;;;5093824;28;20227;-81
2023/11/08 08:50:57;;;;;;;12.53;7.37;;;9.90;99.90;;;;;;5092804;28;20203;-81
2023/11/08 08:53:24;;;;;;;13.43;7.83;;;9.80;99.90;;;;;;5094957;28;20288;-79
2023/11/08 08:55:51;;;;;;;11.87;7.27;;;9.70;99.90;;;;;;5092149;28;20232;-81
2023/11/08 08:58:18;;;;;;;14.80;7.83;;;9.80;99.90;;;;;;5092843;28;20229;-80
2023/11/08 09:00:45;;;;;;;10.13;6.30;;;9.90;99.90;;;;;;5092851;28;20680;-81
2023/11/08 09:03:14;;;;;;;14.77;7.13;;;9.90;99.90;;;;;;5091417;28;20201;-79
2023/11/08 09:05:42;;;;;;;14.90;6.97;;;10.00;99.90;;;;;;5091353;28;20218;-81
2023/11/08 09:08:09;;;;;;;12.20;7.00;;;10.00;99.90;;;;;;5092661;28;20227;-81
2023/11/08 09:10:37;;;;;;;12.73;7.40;;;9.90;99.90;;;;;;5092576;28;20247;-82
2023/11/08 09:13:05;;;;;;;11.80;7.17;;;10.10;99.90;;;;;;5091339;28;20307;-83
2023/11/08 09:15:32;;;;;;;14.87;7.40;;;10.10;99.90;;;;;;5092624;28;20622;-82
2023/11/08 09:17:59;;;;;;;12.37;7.30;;;10.00;99.90;;;;;;5092650;28;20284;-80
2023/11/08 09:20:26;;;;;;;12.63;6.57;;;10.20;99.90;;;;;;5092172;28;20197;-82
2023/11/08 09:22:53;;;;;;;10.17;6.53;;;10.20;99.90;;;;;;5092449;28;20205;-81
2023/11/08 09:25:21;;;;;;;11.73;6.77;;;10.30;99.90;;;;;;5090888;28;20758;-81
2023/11/08 09:27:48;;;;;;;13.47;6.60;;;10.20;99.90;;;;;;5090889;28;20186;-80
2023/11/08 09:30:15;;;;;;;13.77;6.60;;;10.20;99.90;;;;;;5092128;28;20204;-80
2023/11/08 09:32:45;;;;;;;11.30;6.73;;;10.30;99.90;;;;;;5074061;28;20205;-82
2023/11/08 09:35:12;;;;;;;11.23;6.30;;;10.40;99.90;;;;;;5091136;28;20196;-83
2023/11/08 09:37:39;;;;;;;13.63;6.80;;;10.40;99.90;;;;;;5092507;28;20190;-82
2023/11/08 09:40:10;;;;;;;10.93;6.10;;;10.30;99.90;;;;;;5092337;28;20201;-82
2023/11/08 09:42:38;;;;;;;10.97;6.50;;;10.30;99.90;;;;;;5090930;28;20219;-83
2023/11/08 09:45:09;;;;;;;15.40;6.57;;;10.30;99.90;;;;;;5090734;28;20209;-82
2023/11/08 09:47:38;;;;;;;11.50;6.40;;;10.30;99.90;;;;;;5091959;28;20645;-83
2023/11/08 09:50:09;;;;;;;10.23;6.60;;;10.10;99.90;;;;;;5074302;28;20221;-82
2023/11/08 09:52:40;;;;;;;10.00;6.40;;;10.20;99.90;;;;;;5091926;28;20192;-81
2023/11/08 09:55:10;;;;;;;9.70;6.33;;;10.30;99.90;;;;;;5091967;28;20645;-82
2023/11/08 09:57:40;;;;;;;13.03;7.30;;;10.30;99.90;;;;;;5091878;28;20221;-84
2023/11/08 10:00:08;;;;;;;13.57;6.77;;;10.10;99.90;;;;;;5091051;28;20531;-84
2023/11/08 10:02:38;;;;;;;10.27;6.60;;;10.10;99.90;;;;;;5092766;28;20197;-86
2023/11/08 10:05:06;;;;;;;10.97;6.83;;;10.10;99.90;;;;;;5074532;28;20536;-81
2023/11/08 10:07:37;;;;;;;10.33;6.80;;;10.00;99.90;;;;;;5091746;28;20645;-80
2023/11/08 10:10:06;;;;;;;12.43;6.83;;;10.00;99.90;;;;;;5090670;28;20692;-80
2023/11/08 10:12:34;;;;;;;13.83;6.77;;;10.10;99.90;;;;;;5092161;28;20196;-85
2023/11/08 10:15:04;;;;;;;11.45;7.22;;;10.20;99.90;;;;;;5091803;28;20509;-85
2023/11/08 10:17:37;;;;;;;10.23;6.63;;;10.30;99.90;;;;;;5092274;28;20185;-87
2023/11/08 10:20:30;;;;;;;8.97;5.97;;;10.30;99.90;;;;;;5091748;28;20242;-88
2023/11/08 10:22:58;;;;;;;10.60;6.20;;;10.30;99.90;;;;;;5092519;28;20275;-87
2023/11/08 10:25:29;;;;;;;9.33;6.27;;;10.60;99.90;;;;;;5091880;28;20330;-86
2023/11/08 10:28:06;;;;;;;9.73;6.20;;;10.70;99.90;;;;;;5092138;28;20194;-83
2023/11/08 10:30:38;;;;;;;9.00;6.10;;;10.80;99.90;;;;;;5090835;28;20243;-85
2023/11/08 10:33:10;;;;;;;8.87;6.43;;;10.70;99.90;;;;;;5091919;28;20624;-87
2023/11/08 10:35:39;;;;;;;10.70;6.07;;;10.80;99.90;;;;;;5094659;28;20240;-87
2023/11/08 10:38:10;;;;;;;8.67;5.50;;;10.90;99.90;;;;;;5078987;28;20283;-85
2023/11/08 10:40:37;;;;;;;7.93;5.50;;;10.90;99.90;;;;;;5095365;28;20750;-87
2023/11/08 10:43:04;;;;;;;10.80;5.73;;;10.80;99.90;;;;;;5077513;28;20710;-85
2023/11/08 10:45:32;;;;;;;7.87;5.37;;;11.00;99.90;;;;;;5095378;28;20281;-87
2023/11/08 10:48:03;;;;;;;12.20;5.60;;;11.10;99.90;;;;;;5095325;28;20650;-85
2023/11/08 10:50:32;;;;;;;7.67;5.17;;;10.90;99.90;;;;;;5095444;28;20186;-86
2023/11/08 10:52:59;;;;;;;8.27;5.20;;;10.90;99.90;;;;;;5095780;28;20200;-85
2023/11/08 10:55:26;;;;;;;7.20;4.97;;;11.00;99.90;;;;;;5095111;28;20217;-86
2023/11/08 10:57:57;;;;;;;6.93;4.83;;;10.90;99.90;;;;;;5077235;28;20194;-78
2023/11/08 11:00:26;;;;;;;7.23;5.07;;;10.90;99.90;;;;;;5094932;28;20205;-79
2023/11/08 11:03:06;;;;;;;8.67;5.33;;;10.80;99.90;;;;;;5094739;28;20201;-79
2023/11/08 11:05:37;;;;;;;7.70;5.17;;;11.00;99.90;;;;;;5093649;28;20216;-85
2023/11/08 11:08:05;;;;;;;7.67;5.27;;;11.10;99.90;;;;;;5093294;28;20282;-78
2023/11/08 11:10:33;;;;;;;7.67;5.00;;;11.20;99.90;;;;;;5094772;28;20205;-76
2023/11/08 11:13:16;;;;;;;7.73;5.10;;;11.30;99.90;;;;;;5095022;28;20189;-77
2023/11/08 11:16:09;;;;;;;6.27;4.70;;;11.30;99.90;;;;;;5094665;28;20260;-78
2023/11/08 11:18:54;;;;;;;7.70;5.00;;;11.20;99.90;;;;;;5093170;28;20686;-77
2023/11/08 11:21:27;;;;;;;9.60;5.00;;;11.00;99.90;;;;;;5093433;28;20193;-77
2023/11/08 11:23:54;;;;;;;6.90;4.97;;;11.50;99.90;;;;;;5092988;28;20529;-79
2023/11/08 11:26:46;;;;;;;6.70;4.93;;;11.60;99.90;;;;;;5092819;28;20245;-78
2023/11/08 11:29:16;;;;;;;9.07;5.37;;;11.40;99.90;;;;;;5094179;28;20714;-78
2023/11/08 11:31:44;;;;;;;9.80;5.40;;;11.20;99.90;;;;;;5093376;28;20205;-78
2023/11/08 11:34:21;;;;;;;5.97;4.43;;;11.20;99.90;;;;;;5094125;28;20193;-77
2023/11/08 11:37:00;;;;;;;9.30;4.93;;;11.20;99.90;;;;;;5093904;28;20264;-77
2023/11/08 11:39:31;;;;;;;9.10;5.70;;;11.00;99.90;;;;;;5094136;28;20664;-77
2023/11/08 11:42:00;;;;;;;7.73;5.23;;;10.90;99.90;;;;;;5092676;28;20587;-78
2023/11/08 11:44:57;;;;;;;8.20;4.87;;;10.90;99.90;;;;;;5092963;28;20196;-78
2023/11/08 11:47:27;;;;;;;8.50;5.03;;;10.90;99.90;;;;;;5093911;28;20201;-79
2023/11/08 11:50:02;;;;;;;9.27;5.07;;;10.90;99.90;;;;;;5094048;28;20420;-78
2023/11/08 11:52:31;;;;;;;7.00;4.67;;;10.90;99.90;;;;;;5092708;28;20680;-81
2023/11/08 11:55:00;;;;;;;8.30;4.87;;;10.90;99.90;;;;;;5093935;28;20200;-84
2023/11/08 11:57:30;;;;;;;6.67;4.40;;;10.90;99.90;;;;;;5075864;28;20190;-85
2023/11/08 11:59:58;;;;;;;7.57;4.10;;;10.90;99.90;;;;;;5092907;28;20193;-82
2023/11/08 12:02:31;;;;;;;5.43;3.93;;;10.90;99.90;;;;;;5093765;28;20251;-82
2023/11/08 12:04:59;;;;;;;6.47;4.20;;;10.80;99.90;;;;;;5093587;28;20677;-82
2023/11/08 12:07:27;;;;;;;10.73;4.27;;;10.90;99.90;;;;;;5093394;28;20196;-82
2023/11/08 12:09:54;;;;;;;10.60;4.90;;;10.70;99.90;;;;;;5075585;28;20688;-82
2023/11/08 12:12:29;;;;;;;5.97;3.57;;;10.80;99.90;;;;;;5092554;28;20234;-81
2023/11/08 12:14:57;;;;;;;5.17;3.43;;;10.70;99.90;;;;;;5093643;28;20192;-81
2023/11/08 12:17:25;;;;;;;5.60;3.57;;;10.70;99.90;;;;;;5075497;28;20200;-81
2023/11/08 12:19:54;;;;;;;4.77;3.70;;;10.70;99.90;;;;;;5092336;28;20207;-81
2023/11/08 12:22:21;;;;;;;4.63;3.60;;;10.60;99.90;;;;;;5093139;28;20653;-82
2023/11/08 12:24:48;;;;;;;7.57;3.40;;;10.70;99.90;;;;;;5093474;28;20194;-83
2023/11/08 12:27:16;;;;;;;4.03;3.03;;;10.70;99.90;;;;;;5093208;28;20701;-82
2023/11/08 12:29:44;;;;;;;5.63;3.40;;;10.70;99.90;;;;;;5091764;28;20236;-83
2023/11/08 12:32:12;;;;;;;4.00;2.93;;;10.70;99.90;;;;;;5091914;28;20200;-84
2023/11/08 12:34:40;;;;;;;4.67;3.40;;;10.70;99.90;;;;;;5093049;28;20240;-83
2023/11/08 12:37:10;;;;;;;5.30;3.40;;;10.90;99.90;;;;;;5092931;28;20221;-84
2023/11/08 12:39:37;;;;;;;4.80;3.33;;;10.80;99.90;;;;;;5092801;28;20648;-86
2023/11/08 12:42:14;;;;;;;4.87;3.27;;;10.90;99.90;;;;;;5092083;28;20607;-86
2023/11/08 12:44:50;;;;;;;5.27;3.23;;;11.10;99.90;;;;;;5092924;28;20247;-86
2023/11/08 12:47:17;;;;;;;4.67;3.20;;;11.60;99.90;;;;;;5091757;28;20682;-85
2023/11/08 12:49:44;;;;;;;5.00;3.30;;;11.60;99.90;;;;;;5091683;28;20688;-84